sensor_id;sensor_type;location;lat;lon;timestamp;temperature;humidity
22827;DHT22;11580;52.562;13.418;2024-01-07T00:00:08;4.10;27.30
22827;DHT22;11580;52.562;13.418;2024-01-07T00:02:36;4.10;27.30
22827;DHT22;11580;52.562;13.418;2024-01-07T00:05:03;4.10;27.40
22827;DHT22;11580;52.562;13.418;2024-01-07T00:07:31;4.10;27.20
22827;DHT22;11580;52.562;13.418;2024-01-07T00:09:58;4.10;27.30
22827;DHT22;11580;52.562;13.418;2024-01-07T00:12:25;4.10;27.20
22827;DHT22;11580;52.562;13.418;2024-01-07T00:14:54;4.10;27.00
22827;DHT22;11580;52.562;13.418;2024-01-07T00:17:21;4.10;26.80
22827;DHT22;11580;52.562;13.418;2024-01-07T00:19:48;4.00;26.90
22827;DHT22;11580;52.562;13.418;2024-01-07T00:22:15;4.10;26.90
22827;DHT22;11580;52.562;13.418;2024-01-07T00:24:43;4.00;26.80
22827;DHT22;11580;52.562;13.418;2024-01-07T00:27:10;3.90;26.70
22827;DHT22;11580;52.562;13.418;2024-01-07T00:29:37;3.90;26.70
22827;DHT22;11580;52.562;13.418;2024-01-07T00:32:06;3.90;26.70
22827;DHT22;11580;52.562;13.418;2024-01-07T00:34:33;3.90;26.50
22827;DHT22;11580;52.562;13.418;2024-01-07T00:37:01;3.90;26.50
22827;DHT22;11580;52.562;13.418;2024-01-07T00:39:28;3.80;26.40
22827;DHT22;11580;52.562;13.418;2024-01-07T00:41:55;3.80;26.40
22827;DHT22;11580;52.562;13.418;2024-01-07T00:44:22;3.70;26.50
22827;DHT22;11580;52.562;13.418;2024-01-07T00:46:49;3.80;26.40
22827;DHT22;11580;52.562;13.418;2024-01-07T00:49:18;3.70;26.40
22827;DHT22;11580;52.562;13.418;2024-01-07T00:51:45;3.70;26.40
22827;DHT22;11580;52.562;13.418;2024-01-07T00:54:12;3.70;27.00
22827;DHT22;11580;52.562;13.418;2024-01-07T00:56:39;3.70;26.40
22827;DHT22;11580;52.562;13.418;2024-01-07T00:59:07;3.60;26.40
22827;DHT22;11580;52.562;13.418;2024-01-07T01:01:34;3.60;26.30
22827;DHT22;11580;52.562;13.418;2024-01-07T01:04:01;3.60;26.30
22827;DHT22;11580;52.562;13.418;2024-01-07T01:06:30;3.60;26.00
22827;DHT22;11580;52.562;13.418;2024-01-07T01:08:58;3.60;25.70
22827;DHT22;11580;52.562;13.418;2024-01-07T01:11:25;3.70;26.00
22827;DHT22;11580;52.562;13.418;2024-01-07T01:13:52;3.60;25.80
22827;DHT22;11580;52.562;13.418;2024-01-07T01:16:19;3.50;25.80
22827;DHT22;11580;52.562;13.418;2024-01-07T01:18:46;3.50;26.30
22827;DHT22;11580;52.562;13.418;2024-01-07T01:21:13;3.40;25.50
22827;DHT22;11580;52.562;13.418;2024-01-07T01:23:43;3.40;25.40
22827;DHT22;11580;52.562;13.418;2024-01-07T01:26:10;3.40;25.20
22827;DHT22;11580;52.562;13.418;2024-01-07T01:28:38;3.30;25.80
22827;DHT22;11580;52.562;13.418;2024-01-07T01:31:05;3.30;25.40
22827;DHT22;11580;52.562;13.418;2024-01-07T01:33:32;3.30;25.40
22827;DHT22;11580;52.562;13.418;2024-01-07T01:36:04;3.20;25.30
22827;DHT22;11580;52.562;13.418;2024-01-07T01:38:32;3.20;25.60
22827;DHT22;11580;52.562;13.418;2024-01-07T01:41:00;3.10;25.00
22827;DHT22;11580;52.562;13.418;2024-01-07T01:43:28;3.10;25.00
22827;DHT22;11580;52.562;13.418;2024-01-07T01:45:56;3.10;25.10
22827;DHT22;11580;52.562;13.418;2024-01-07T01:48:24;3.00;25.00
22827;DHT22;11580;52.562;13.418;2024-01-07T01:50:54;3.00;25.10
22827;DHT22;11580;52.562;13.418;2024-01-07T01:53:24;2.90;24.90
22827;DHT22;11580;52.562;13.418;2024-01-07T01:55:53;2.90;25.00
22827;DHT22;11580;52.562;13.418;2024-01-07T01:58:25;2.80;25.60
22827;DHT22;11580;52.562;13.418;2024-01-07T02:00:53;2.80;24.80
22827;DHT22;11580;52.562;13.418;2024-01-07T02:03:21;2.80;25.20
22827;DHT22;11580;52.562;13.418;2024-01-07T02:05:48;2.80;25.40
22827;DHT22;11580;52.562;13.418;2024-01-07T02:08:16;2.80;25.80
22827;DHT22;11580;52.562;13.418;2024-01-07T02:10:44;2.80;25.30
22827;DHT22;11580;52.562;13.418;2024-01-07T02:13:11;2.70;25.30
22827;DHT22;11580;52.562;13.418;2024-01-07T02:15:40;2.70;25.20
22827;DHT22;11580;52.562;13.418;2024-01-07T02:18:07;2.70;25.10
22827;DHT22;11580;52.562;13.418;2024-01-07T02:20:34;2.70;25.10
22827;DHT22;11580;52.562;13.418;2024-01-07T02:23:02;2.70;25.20
22827;DHT22;11580;52.562;13.418;2024-01-07T02:25:35;2.70;25.10
22827;DHT22;11580;52.562;13.418;2024-01-07T02:28:02;2.70;25.40
22827;DHT22;11580;52.562;13.418;2024-01-07T02:30:30;2.60;24.90
22827;DHT22;11580;52.562;13.418;2024-01-07T02:33:01;2.70;24.80
22827;DHT22;11580;52.562;13.418;2024-01-07T02:35:29;2.50;24.60
22827;DHT22;11580;52.562;13.418;2024-01-07T02:37:56;2.50;24.60
22827;DHT22;11580;52.562;13.418;2024-01-07T02:40:24;2.50;24.60
22827;DHT22;11580;52.562;13.418;2024-01-07T02:42:52;2.40;24.60
22827;DHT22;11580;52.562;13.418;2024-01-07T02:45:21;2.40;24.60
22827;DHT22;11580;52.562;13.418;2024-01-07T02:47:48;2.30;24.50
22827;DHT22;11580;52.562;13.418;2024-01-07T02:50:15;2.30;24.50
22827;DHT22;11580;52.562;13.418;2024-01-07T02:52:43;2.20;24.40
22827;DHT22;11580;52.562;13.418;2024-01-07T02:55:10;2.20;24.50
22827;DHT22;11580;52.562;13.418;2024-01-07T02:57:37;2.10;24.50
22827;DHT22;11580;52.562;13.418;2024-01-07T03:00:07;2.10;24.60
22827;DHT22;11580;52.562;13.418;2024-01-07T03:02:35;2.00;24.30
22827;DHT22;11580;52.562;13.418;2024-01-07T03:05:02;2.00;24.70
22827;DHT22;11580;52.562;13.418;2024-01-07T03:07:29;1.90;24.70
22827;DHT22;11580;52.562;13.418;2024-01-07T03:09:57;1.90;24.70
22827;DHT22;11580;52.562;13.418;2024-01-07T03:12:24;1.80;24.80
22827;DHT22;11580;52.562;13.418;2024-01-07T03:14:51;1.80;24.90
22827;DHT22;11580;52.562;13.418;2024-01-07T03:17:19;1.80;25.00
22827;DHT22;11580;52.562;13.418;2024-01-07T03:19:48;1.80;24.90
22827;DHT22;11580;52.562;13.418;2024-01-07T03:22:15;1.70;24.90
22827;DHT22;11580;52.562;13.418;2024-01-07T03:24:42;1.70;24.90
22827;DHT22;11580;52.562;13.418;2024-01-07T03:27:09;1.70;25.00
22827;DHT22;11580;52.562;13.418;2024-01-07T03:29:36;1.70;25.10
22827;DHT22;11580;52.562;13.418;2024-01-07T03:32:04;1.70;25.10
22827;DHT22;11580;52.562;13.418;2024-01-07T03:34:33;1.60;24.90
22827;DHT22;11580;52.562;13.418;2024-01-07T03:37:00;1.60;24.80
22827;DHT22;11580;52.562;13.418;2024-01-07T03:39:27;1.60;25.00
22827;DHT22;11580;52.562;13.418;2024-01-07T03:41:55;1.60;25.10
22827;DHT22;11580;52.562;13.418;2024-01-07T03:44:22;1.60;25.10
22827;DHT22;11580;52.562;13.418;2024-01-07T03:46:50;1.60;25.10
22827;DHT22;11580;52.562;13.418;2024-01-07T03:49:17;1.60;25.10
22827;DHT22;11580;52.562;13.418;2024-01-07T03:51:45;1.50;25.10
22827;DHT22;11580;52.562;13.418;2024-01-07T03:54:12;1.60;25.10
22827;DHT22;11580;52.562;13.418;2024-01-07T03:56:40;1.60;25.30
22827;DHT22;11580;52.562;13.418;2024-01-07T03:59:07;1.60;25.20
22827;DHT22;11580;52.562;13.418;2024-01-07T04:01:34;1.60;25.70
22827;DHT22;11580;52.562;13.418;2024-01-07T04:04:01;1.60;25.70
22827;DHT22;11580;52.562;13.418;2024-01-07T04:06:28;1.60;25.10
22827;DHT22;11580;52.562;13.418;2024-01-07T04:08:57;1.60;25.10
22827;DHT22;11580;52.562;13.418;2024-01-07T04:11:24;1.60;25.50
22827;DHT22;11580;52.562;13.418;2024-01-07T04:13:51;1.60;25.60
22827;DHT22;11580;52.562;13.418;2024-01-07T04:16:19;1.50;25.60
22827;DHT22;11580;52.562;13.418;2024-01-07T04:18:47;1.50;25.10
22827;DHT22;11580;52.562;13.418;2024-01-07T04:21:14;1.50;25.60
22827;DHT22;11580;52.562;13.418;2024-01-07T04:23:41;1.50;25.10
22827;DHT22;11580;52.562;13.418;2024-01-07T04:26:10;1.50;25.20
22827;DHT22;11580;52.562;13.418;2024-01-07T04:28:41;1.50;25.10
22827;DHT22;11580;52.562;13.418;2024-01-07T04:31:08;1.60;25.20
22827;DHT22;11580;52.562;13.418;2024-01-07T04:33:36;1.60;25.40
22827;DHT22;11580;52.562;13.418;2024-01-07T04:36:03;1.60;25.40
22827;DHT22;11580;52.562;13.418;2024-01-07T04:38:31;1.60;25.30
22827;DHT22;11580;52.562;13.418;2024-01-07T04:40:58;1.60;25.30
22827;DHT22;11580;52.562;13.418;2024-01-07T04:43:26;1.60;25.30
22827;DHT22;11580;52.562;13.418;2024-01-07T04:45:53;1.70;25.10
22827;DHT22;11580;52.562;13.418;2024-01-07T04:48:21;1.60;25.20
22827;DHT22;11580;52.562;13.418;2024-01-07T04:50:48;1.60;25.10
22827;DHT22;11580;52.562;13.418;2024-01-07T04:53:15;1.70;25.60
22827;DHT22;11580;52.562;13.418;2024-01-07T04:55:43;1.70;25.10
22827;DHT22;11580;52.562;13.418;2024-01-07T04:58:10;1.70;25.20
22827;DHT22;11580;52.562;13.418;2024-01-07T05:00:38;1.60;25.30
22827;DHT22;11580;52.562;13.418;2024-01-07T05:03:06;1.70;25.80
22827;DHT22;11580;52.562;13.418;2024-01-07T05:05:33;1.70;25.50
22827;DHT22;11580;52.562;13.418;2024-01-07T05:08:01;1.70;25.50
22827;DHT22;11580;52.562;13.418;2024-01-07T05:10:29;1.80;25.70
22827;DHT22;11580;52.562;13.418;2024-01-07T05:12:56;1.80;25.70
22827;DHT22;11580;52.562;13.418;2024-01-07T05:15:23;1.90;26.20
22827;DHT22;11580;52.562;13.418;2024-01-07T05:17:51;2.00;25.70
22827;DHT22;11580;52.562;13.418;2024-01-07T05:20:19;2.00;25.50
22827;DHT22;11580;52.562;13.418;2024-01-07T05:22:46;2.10;26.20
22827;DHT22;11580;52.562;13.418;2024-01-07T05:25:13;2.10;25.60
22827;DHT22;11580;52.562;13.418;2024-01-07T05:27:40;2.20;25.60
22827;DHT22;11580;52.562;13.418;2024-01-07T05:30:08;2.20;25.50
22827;DHT22;11580;52.562;13.418;2024-01-07T05:32:35;2.30;25.30
22827;DHT22;11580;52.562;13.418;2024-01-07T05:35:04;2.30;25.20
22827;DHT22;11580;52.562;13.418;2024-01-07T05:37:31;2.30;25.00
22827;DHT22;11580;52.562;13.418;2024-01-07T05:39:58;2.40;25.90
22827;DHT22;11580;52.562;13.418;2024-01-07T05:42:26;2.40;25.30
22827;DHT22;11580;52.562;13.418;2024-01-07T05:44:53;2.40;25.20
22827;DHT22;11580;52.562;13.418;2024-01-07T05:47:20;2.50;25.30
22827;DHT22;11580;52.562;13.418;2024-01-07T05:49:47;2.50;25.30
22827;DHT22;11580;52.562;13.418;2024-01-07T05:52:15;2.60;25.40
22827;DHT22;11580;52.562;13.418;2024-01-07T05:54:43;2.60;25.50
22827;DHT22;11580;52.562;13.418;2024-01-07T05:57:11;2.60;25.20
22827;DHT22;11580;52.562;13.418;2024-01-07T05:59:39;2.60;25.60
22827;DHT22;11580;52.562;13.418;2024-01-07T06:02:06;2.70;25.20
22827;DHT22;11580;52.562;13.418;2024-01-07T06:04:33;2.70;25.10
22827;DHT22;11580;52.562;13.418;2024-01-07T06:07:00;2.70;25.00
22827;DHT22;11580;52.562;13.418;2024-01-07T06:09:29;2.70;24.90
22827;DHT22;11580;52.562;13.418;2024-01-07T06:11:56;2.80;24.80
22827;DHT22;11580;52.562;13.418;2024-01-07T06:14:23;2.80;25.00
22827;DHT22;11580;52.562;13.418;2024-01-07T06:16:50;2.80;25.00
22827;DHT22;11580;52.562;13.418;2024-01-07T06:19:18;2.80;25.00
22827;DHT22;11580;52.562;13.418;2024-01-07T06:21:45;2.80;25.00
22827;DHT22;11580;52.562;13.418;2024-01-07T06:24:12;2.80;25.10
22827;DHT22;11580;52.562;13.418;2024-01-07T06:26:42;2.90;25.10
22827;DHT22;11580;52.562;13.418;2024-01-07T06:29:09;2.90;24.90
22827;DHT22;11580;52.562;13.418;2024-01-07T06:31:42;2.90;25.10
22827;DHT22;11580;52.562;13.418;2024-01-07T06:34:11;2.90;25.20
22827;DHT22;11580;52.562;13.418;2024-01-07T06:36:39;2.90;25.20
22827;DHT22;11580;52.562;13.418;2024-01-07T06:39:07;3.00;25.30
22827;DHT22;11580;52.562;13.418;2024-01-07T06:41:34;3.00;25.20
22827;DHT22;11580;52.562;13.418;2024-01-07T06:44:04;3.00;25.20
22827;DHT22;11580;52.562;13.418;2024-01-07T06:46:31;3.00;24.90
22827;DHT22;11580;52.562;13.418;2024-01-07T06:49:00;3.10;25.30
22827;DHT22;11580;52.562;13.418;2024-01-07T06:51:28;3.10;25.70
22827;DHT22;11580;52.562;13.418;2024-01-07T06:53:55;3.10;25.30
22827;DHT22;11580;52.562;13.418;2024-01-07T06:56:22;3.10;25.30
22827;DHT22;11580;52.562;13.418;2024-01-07T06:58:50;3.20;25.40
22827;DHT22;11580;52.562;13.418;2024-01-07T07:01:20;3.20;25.40
22827;DHT22;11580;52.562;13.418;2024-01-07T07:03:48;3.20;25.10
22827;DHT22;11580;52.562;13.418;2024-01-07T07:06:16;3.30;25.20
22827;DHT22;11580;52.562;13.418;2024-01-07T07:08:43;3.20;25.10
22827;DHT22;11580;52.562;13.418;2024-01-07T07:11:10;3.20;25.10
22827;DHT22;11580;52.562;13.418;2024-01-07T07:13:37;3.20;25.60
22827;DHT22;11580;52.562;13.418;2024-01-07T07:16:06;3.20;25.10
22827;DHT22;11580;52.562;13.418;2024-01-07T07:18:35;3.20;25.10
22827;DHT22;11580;52.562;13.418;2024-01-07T07:21:02;3.20;25.10
22827;DHT22;11580;52.562;13.418;2024-01-07T07:23:29;3.20;25.10
22827;DHT22;11580;52.562;13.418;2024-01-07T07:25:57;3.20;25.10
22827;DHT22;11580;52.562;13.418;2024-01-07T07:28:24;3.20;25.10
22827;DHT22;11580;52.562;13.418;2024-01-07T07:30:52;3.20;25.10
22827;DHT22;11580;52.562;13.418;2024-01-07T07:33:19;3.00;24.90
22827;DHT22;11580;52.562;13.418;2024-01-07T07:35:47;3.20;25.10
22827;DHT22;11580;52.562;13.418;2024-01-07T07:38:15;3.20;25.10
22827;DHT22;11580;52.562;13.418;2024-01-07T07:40:42;3.20;25.10
22827;DHT22;11580;52.562;13.418;2024-01-07T07:43:10;3.20;25.10
22827;DHT22;11580;52.562;13.418;2024-01-07T07:45:38;3.30;25.10
22827;DHT22;11580;52.562;13.418;2024-01-07T07:48:06;3.30;25.10
22827;DHT22;11580;52.562;13.418;2024-01-07T07:50:33;3.30;25.10
22827;DHT22;11580;52.562;13.418;2024-01-07T07:53:01;3.30;25.40
22827;DHT22;11580;52.562;13.418;2024-01-07T07:55:29;3.40;25.20
22827;DHT22;11580;52.562;13.418;2024-01-07T07:57:56;3.40;25.50
22827;DHT22;11580;52.562;13.418;2024-01-07T08:00:23;3.50;25.50
22827;DHT22;11580;52.562;13.418;2024-01-07T08:02:50;3.50;25.30
22827;DHT22;11580;52.562;13.418;2024-01-07T08:05:18;3.60;25.90
22827;DHT22;11580;52.562;13.418;2024-01-07T08:07:45;3.60;25.30
22827;DHT22;11580;52.562;13.418;2024-01-07T08:10:14;3.60;25.80
22827;DHT22;11580;52.562;13.418;2024-01-07T08:12:41;3.60;25.30
22827;DHT22;11580;52.562;13.418;2024-01-07T08:15:09;3.60;25.30
22827;DHT22;11580;52.562;13.418;2024-01-07T08:17:36;3.60;25.30
22827;DHT22;11580;52.562;13.418;2024-01-07T08:20:05;3.60;25.30
22827;DHT22;11580;52.562;13.418;2024-01-07T08:22:33;3.70;25.40
22827;DHT22;11580;52.562;13.418;2024-01-07T08:25:00;3.70;25.40
22827;DHT22;11580;52.562;13.418;2024-01-07T08:27:28;3.70;25.40
22827;DHT22;11580;52.562;13.418;2024-01-07T08:29:58;3.70;25.40
22827;DHT22;11580;52.562;13.418;2024-01-07T08:32:25;3.80;25.50
22827;DHT22;11580;52.562;13.418;2024-01-07T08:34:52;3.80;25.40
22827;DHT22;11580;52.562;13.418;2024-01-07T08:37:19;3.80;25.40
22827;DHT22;11580;52.562;13.418;2024-01-07T08:39:46;3.80;25.40
22827;DHT22;11580;52.562;13.418;2024-01-07T08:42:13;3.90;25.50
22827;DHT22;11580;52.562;13.418;2024-01-07T08:44:42;3.90;25.50
22827;DHT22;11580;52.562;13.418;2024-01-07T08:47:09;3.90;25.50
22827;DHT22;11580;52.562;13.418;2024-01-07T08:49:38;4.00;26.10
22827;DHT22;11580;52.562;13.418;2024-01-07T08:52:05;4.00;26.10
22827;DHT22;11580;52.562;13.418;2024-01-07T08:54:33;4.10;25.60
22827;DHT22;11580;52.562;13.418;2024-01-07T08:57:00;4.10;25.60
22827;DHT22;11580;52.562;13.418;2024-01-07T08:59:27;4.20;25.70
22827;DHT22;11580;52.562;13.418;2024-01-07T09:01:56;4.20;26.30
22827;DHT22;11580;52.562;13.418;2024-01-07T09:04:23;4.20;25.70
22827;DHT22;11580;52.562;13.418;2024-01-07T09:06:50;4.20;26.20
22827;DHT22;11580;52.562;13.418;2024-01-07T09:09:17;4.30;25.70
22827;DHT22;11580;52.562;13.418;2024-01-07T09:11:45;4.30;25.70
22827;DHT22;11580;52.562;13.418;2024-01-07T09:14:12;4.40;25.80
22827;DHT22;11580;52.562;13.418;2024-01-07T09:16:40;4.40;25.80
22827;DHT22;11580;52.562;13.418;2024-01-07T09:19:09;4.40;25.80
22827;DHT22;11580;52.562;13.418;2024-01-07T09:21:38;4.50;25.90
22827;DHT22;11580;52.562;13.418;2024-01-07T09:24:05;4.50;25.90
22827;DHT22;11580;52.562;13.418;2024-01-07T09:26:34;4.50;25.90
22827;DHT22;11580;52.562;13.418;2024-01-07T09:29:01;4.60;25.90
22827;DHT22;11580;52.562;13.418;2024-01-07T09:31:28;4.60;25.90
22827;DHT22;11580;52.562;13.418;2024-01-07T09:33:55;4.60;25.90
22827;DHT22;11580;52.562;13.418;2024-01-07T09:36:24;4.70;26.00
22827;DHT22;11580;52.562;13.418;2024-01-07T09:38:51;4.60;25.70
22827;DHT22;11580;52.562;13.418;2024-01-07T09:41:19;4.60;25.90
22827;DHT22;11580;52.562;13.418;2024-01-07T09:43:46;4.60;25.90
22827;DHT22;11580;52.562;13.418;2024-01-07T09:46:14;4.60;25.90
22827;DHT22;11580;52.562;13.418;2024-01-07T09:48:41;4.60;25.90
22827;DHT22;11580;52.562;13.418;2024-01-07T09:51:09;4.60;26.50
22827;DHT22;11580;52.562;13.418;2024-01-07T09:53:40;4.60;26.30
22827;DHT22;11580;52.562;13.418;2024-01-07T09:56:15;4.60;25.40
22827;DHT22;11580;52.562;13.418;2024-01-07T09:58:46;4.60;25.50
22827;DHT22;11580;52.562;13.418;2024-01-07T10:01:16;4.60;25.70
22827;DHT22;11580;52.562;13.418;2024-01-07T10:03:44;4.60;25.90
22827;DHT22;11580;52.562;13.418;2024-01-07T10:06:11;4.50;25.90
22827;DHT22;11580;52.562;13.418;2024-01-07T10:08:40;4.50;25.90
22827;DHT22;11580;52.562;13.418;2024-01-07T10:11:08;4.50;25.90
22827;DHT22;11580;52.562;13.418;2024-01-07T10:13:35;4.50;25.90
22827;DHT22;11580;52.562;13.418;2024-01-07T10:16:02;4.50;26.40
22827;DHT22;11580;52.562;13.418;2024-01-07T10:18:30;4.60;25.90
22827;DHT22;11580;52.562;13.418;2024-01-07T10:21:02;4.60;25.90
22827;DHT22;11580;52.562;13.418;2024-01-07T10:23:30;4.60;26.50
22827;DHT22;11580;52.562;13.418;2024-01-07T10:25:59;4.60;26.50
22827;DHT22;11580;52.562;13.418;2024-01-07T10:28:27;4.60;25.90
22827;DHT22;11580;52.562;13.418;2024-01-07T10:30:55;4.60;26.50
22827;DHT22;11580;52.562;13.418;2024-01-07T10:33:22;4.60;26.00
22827;DHT22;11580;52.562;13.418;2024-01-07T10:35:52;4.60;26.00
22827;DHT22;11580;52.562;13.418;2024-01-07T10:38:29;4.70;26.00
22827;DHT22;11580;52.562;13.418;2024-01-07T10:41:00;4.70;26.20
22827;DHT22;11580;52.562;13.418;2024-01-07T10:43:29;4.70;26.00
22827;DHT22;11580;52.562;13.418;2024-01-07T10:46:00;4.70;26.00
22827;DHT22;11580;52.562;13.418;2024-01-07T10:48:30;4.80;26.00
22827;DHT22;11580;52.562;13.418;2024-01-07T10:51:00;4.80;26.60
22827;DHT22;11580;52.562;13.418;2024-01-07T10:53:32;4.90;26.10
22827;DHT22;11580;52.562;13.418;2024-01-07T10:56:03;4.90;26.10
22827;DHT22;11580;52.562;13.418;2024-01-07T10:58:32;4.90;26.10
22827;DHT22;11580;52.562;13.418;2024-01-07T11:01:00;5.00;26.20
22827;DHT22;11580;52.562;13.418;2024-01-07T11:03:43;5.00;27.00
22827;DHT22;11580;52.562;13.418;2024-01-07T11:06:20;5.10;26.80
22827;DHT22;11580;52.562;13.418;2024-01-07T11:08:58;5.10;26.20
22827;DHT22;11580;52.562;13.418;2024-01-07T11:11:38;5.20;26.30
22827;DHT22;11580;52.562;13.418;2024-01-07T11:14:34;5.20;25.50
22827;DHT22;11580;52.562;13.418;2024-01-07T11:17:02;5.20;24.90
22827;DHT22;11580;52.562;13.418;2024-01-07T11:19:29;5.30;26.40
22827;DHT22;11580;52.562;13.418;2024-01-07T11:22:21;5.30;26.90
22827;DHT22;11580;52.562;13.418;2024-01-07T11:24:53;5.30;25.00
22827;DHT22;11580;52.562;13.418;2024-01-07T11:27:23;5.20;26.30
22827;DHT22;11580;52.562;13.418;2024-01-07T11:29:54;5.40;26.40
22827;DHT22;11580;52.562;13.418;2024-01-07T11:32:22;5.20;26.30
22827;DHT22;11580;52.562;13.418;2024-01-07T11:34:51;5.20;26.80
22827;DHT22;11580;52.562;13.418;2024-01-07T11:37:20;5.20;26.30
22827;DHT22;11580;52.562;13.418;2024-01-07T11:39:48;5.20;26.80
22827;DHT22;11580;52.562;13.418;2024-01-07T11:42:18;5.20;26.30
22827;DHT22;11580;52.562;13.418;2024-01-07T11:44:47;5.30;26.40
22827;DHT22;11580;52.562;13.418;2024-01-07T11:47:15;5.30;26.40
22827;DHT22;11580;52.562;13.418;2024-01-07T11:49:43;5.30;26.60
22827;DHT22;11580;52.562;13.418;2024-01-07T11:52:10;5.30;26.70
22827;DHT22;11580;52.562;13.418;2024-01-07T11:54:38;5.30;26.40
22827;DHT22;11580;52.562;13.418;2024-01-07T11:57:06;5.30;26.40
22827;DHT22;11580;52.562;13.418;2024-01-07T11:59:33;5.30;26.70
22827;DHT22;11580;52.562;13.418;2024-01-07T12:02:03;5.30;27.00
22827;DHT22;11580;52.562;13.418;2024-01-07T12:04:31;5.30;26.90
22827;DHT22;11580;52.562;13.418;2024-01-07T12:06:59;5.30;27.10
22827;DHT22;11580;52.562;13.418;2024-01-07T12:09:26;5.30;26.50
22827;DHT22;11580;52.562;13.418;2024-01-07T12:11:54;5.40;26.60
22827;DHT22;11580;52.562;13.418;2024-01-07T12:14:21;5.30;26.70
22827;DHT22;11580;52.562;13.418;2024-01-07T12:16:49;5.30;26.80
22827;DHT22;11580;52.562;13.418;2024-01-07T12:19:17;5.30;26.80
22827;DHT22;11580;52.562;13.418;2024-01-07T12:21:45;5.30;26.80
22827;DHT22;11580;52.562;13.418;2024-01-07T12:24:13;5.30;27.00
22827;DHT22;11580;52.562;13.418;2024-01-07T12:26:40;5.40;27.10
22827;DHT22;11580;52.562;13.418;2024-01-07T12:29:08;5.40;27.10
22827;DHT22;11580;52.562;13.418;2024-01-07T12:31:39;5.40;27.70
22827;DHT22;11580;52.562;13.418;2024-01-07T12:34:07;5.40;27.10
22827;DHT22;11580;52.562;13.418;2024-01-07T12:36:36;5.40;27.10
22827;DHT22;11580;52.562;13.418;2024-01-07T12:39:03;5.40;27.10
22827;DHT22;11580;52.562;13.418;2024-01-07T12:41:30;5.40;27.30
22827;DHT22;11580;52.562;13.418;2024-01-07T12:43:57;5.40;27.30
22827;DHT22;11580;52.562;13.418;2024-01-07T12:46:25;5.50;27.30
22827;DHT22;11580;52.562;13.418;2024-01-07T12:48:52;5.50;27.30
22827;DHT22;11580;52.562;13.418;2024-01-07T12:51:19;5.50;27.30
22827;DHT22;11580;52.562;13.418;2024-01-07T12:53:48;5.50;27.40
22827;DHT22;11580;52.562;13.418;2024-01-07T12:56:15;5.50;27.80
22827;DHT22;11580;52.562;13.418;2024-01-07T12:58:42;5.50;27.40
22827;DHT22;11580;52.562;13.418;2024-01-07T13:01:09;5.50;27.40
22827;DHT22;11580;52.562;13.418;2024-01-07T13:03:37;5.50;27.40
22827;DHT22;11580;52.562;13.418;2024-01-07T13:06:04;5.50;27.50
22827;DHT22;11580;52.562;13.418;2024-01-07T13:08:32;5.50;27.60
22827;DHT22;11580;52.562;13.418;2024-01-07T13:11:00;5.60;27.70
22827;DHT22;11580;52.562;13.418;2024-01-07T13:13:28;5.50;27.60
22827;DHT22;11580;52.562;13.418;2024-01-07T13:15:55;5.60;27.80
22827;DHT22;11580;52.562;13.418;2024-01-07T13:18:23;5.60;27.70
22827;DHT22;11580;52.562;13.418;2024-01-07T13:20:51;5.60;28.30
22827;DHT22;11580;52.562;13.418;2024-01-07T13:23:18;5.60;27.90
22827;DHT22;11580;52.562;13.418;2024-01-07T13:25:46;5.60;27.90
22827;DHT22;11580;52.562;13.418;2024-01-07T13:28:14;5.60;28.00
22827;DHT22;11580;52.562;13.418;2024-01-07T13:30:41;5.60;28.00
22827;DHT22;11580;52.562;13.418;2024-01-07T13:33:09;5.60;28.00
22827;DHT22;11580;52.562;13.418;2024-01-07T13:35:36;5.60;28.50
22827;DHT22;11580;52.562;13.418;2024-01-07T13:38:03;5.60;28.10
22827;DHT22;11580;52.562;13.418;2024-01-07T13:40:30;5.60;28.10
22827;DHT22;11580;52.562;13.418;2024-01-07T13:42:57;5.60;28.10
22827;DHT22;11580;52.562;13.418;2024-01-07T13:45:26;5.60;28.20
22827;DHT22;11580;52.562;13.418;2024-01-07T13:47:53;5.60;28.10
22827;DHT22;11580;52.562;13.418;2024-01-07T13:50:20;5.50;28.20
22827;DHT22;11580;52.562;13.418;2024-01-07T13:52:47;5.50;28.30
22827;DHT22;11580;52.562;13.418;2024-01-07T13:55:15;5.50;28.40
22827;DHT22;11580;52.562;13.418;2024-01-07T13:57:42;5.50;28.40
22827;DHT22;11580;52.562;13.418;2024-01-07T14:00:10;5.50;28.40
22827;DHT22;11580;52.562;13.418;2024-01-07T14:02:45;5.50;28.30
22827;DHT22;11580;52.562;13.418;2024-01-07T14:05:12;5.50;28.20
22827;DHT22;11580;52.562;13.418;2024-01-07T14:07:39;5.50;28.90
22827;DHT22;11580;52.562;13.418;2024-01-07T14:10:08;5.50;28.90
22827;DHT22;11580;52.562;13.418;2024-01-07T14:12:35;5.50;28.30
22827;DHT22;11580;52.562;13.418;2024-01-07T14:15:03;5.50;28.70
22827;DHT22;11580;52.562;13.418;2024-01-07T14:17:32;5.50;28.30
22827;DHT22;11580;52.562;13.418;2024-01-07T14:20:00;5.50;28.90
22827;DHT22;11580;52.562;13.418;2024-01-07T14:22:29;5.50;28.20
22827;DHT22;11580;52.562;13.418;2024-01-07T14:24:56;5.50;28.30
22827;DHT22;11580;52.562;13.418;2024-01-07T14:27:23;5.40;28.70
22827;DHT22;11580;52.562;13.418;2024-01-07T14:29:50;5.40;28.20
22827;DHT22;11580;52.562;13.418;2024-01-07T14:32:17;5.40;28.10
22827;DHT22;11580;52.562;13.418;2024-01-07T14:34:45;5.40;28.10
22827;DHT22;11580;52.562;13.418;2024-01-07T14:37:15;5.40;28.10
22827;DHT22;11580;52.562;13.418;2024-01-07T14:39:43;5.40;28.10
22827;DHT22;11580;52.562;13.418;2024-01-07T14:42:10;5.30;28.10
22827;DHT22;11580;52.562;13.418;2024-01-07T14:44:38;5.30;28.10
22827;DHT22;11580;52.562;13.418;2024-01-07T14:47:05;5.30;28.70
22827;DHT22;11580;52.562;13.418;2024-01-07T14:49:32;5.30;28.20
22827;DHT22;11580;52.562;13.418;2024-01-07T14:51:59;5.20;28.30
22827;DHT22;11580;52.562;13.418;2024-01-07T14:54:28;5.20;28.30
22827;DHT22;11580;52.562;13.418;2024-01-07T14:56:57;5.20;28.10
22827;DHT22;11580;52.562;13.418;2024-01-07T14:59:24;5.20;28.20
22827;DHT22;11580;52.562;13.418;2024-01-07T15:01:52;5.20;28.80
22827;DHT22;11580;52.562;13.418;2024-01-07T15:04:19;5.20;28.10
22827;DHT22;11580;52.562;13.418;2024-01-07T15:06:46;5.20;28.10
22827;DHT22;11580;52.562;13.418;2024-01-07T15:09:14;5.10;28.10
22827;DHT22;11580;52.562;13.418;2024-01-07T15:11:43;5.10;28.10
22827;DHT22;11580;52.562;13.418;2024-01-07T15:14:13;5.10;28.00
22827;DHT22;11580;52.562;13.418;2024-01-07T15:16:41;5.10;28.10
22827;DHT22;11580;52.562;13.418;2024-01-07T15:19:08;5.10;28.10
22827;DHT22;11580;52.562;13.418;2024-01-07T15:21:36;5.10;28.10
22827;DHT22;11580;52.562;13.418;2024-01-07T15:24:04;5.10;27.90
22827;DHT22;11580;52.562;13.418;2024-01-07T15:26:31;5.10;27.80
22827;DHT22;11580;52.562;13.418;2024-01-07T15:29:02;5.00;27.80
22827;DHT22;11580;52.562;13.418;2024-01-07T15:31:29;5.00;27.60
22827;DHT22;11580;52.562;13.418;2024-01-07T15:33:56;5.00;28.30